Time;durP1;ratioP1;P1;durP2;ratioP2;P2;SDS_P1;SDS_P2;PMS_P1;PMS_P2;Temp;Humidity;BMP_temperature;BMP_pressure;BME280_temperature;BME280_humidity;BME280_pressure;Samples;Min_cycle;Max_cycle;Signal;HPM_P1;HPM_P2
2022/07/01 00:00:24;;;;;;;3.13;1.00;;;18.70;1.00;;;;;;5074828;28;20196;-77
2022/07/01 00:02:50;;;;;;;0.70;0.70;;;18.70;1.00;;;;;;5075074;28;20515;-76
2022/07/01 00:05:16;;;;;;;2.30;1.00;;;18.60;1.00;;;;;;5075320;28;20182;-80
2022/07/01 00:07:41;;;;;;;3.90;0.80;;;18.60;1.00;;;;;;5062188;28;20726;-80
2022/07/01 00:10:07;;;;;;;1.33;1.00;;;18.50;1.00;;;;;;5074702;28;20483;-80
2022/07/01 00:12:33;;;;;;;0.80;0.80;;;18.40;1.00;;;;;;5071185;28;20260;-80
2022/07/01 00:14:58;;;;;;;0.93;0.83;;;18.50;1.00;;;;;;5074218;28;20519;-80
2022/07/01 00:17:24;;;;;;;0.87;0.80;;;18.50;1.00;;;;;;5074966;28;20210;-80
2022/07/01 00:19:52;;;;;;;0.90;0.60;;;18.60;1.00;;;;;;5073839;28;20675;-77
2022/07/01 00:22:18;;;;;;;0.90;0.80;;;18.60;1.00;;;;;;5075044;28;20186;-80
2022/07/01 00:24:46;;;;;;;0.80;0.80;;;18.60;1.00;;;;;;5074255;28;20936;-80
2022/07/01 00:27:12;;;;;;;0.80;0.80;;;18.60;1.00;;;;;;5074760;28;20230;-80
2022/07/01 00:29:38;;;;;;;0.80;0.80;;;18.50;1.00;;;;;;5074419;28;20819;-80
2022/07/01 00:32:04;;;;;;;2.50;1.00;;;18.50;1.00;;;;;;5074365;28;20448;-80
2022/07/01 00:34:30;;;;;;;0.83;0.80;;;18.50;1.00;;;;;;5074178;28;20169;-80
2022/07/01 00:36:55;;;;;;;1.00;0.90;;;18.40;1.00;;;;;;5074710;28;20261;-77
2022/07/01 00:39:21;;;;;;;1.10;1.00;;;18.40;1.00;;;;;;5074485;28;20217;-77
2022/07/01 00:41:46;;;;;;;1.00;0.90;;;18.40;1.00;;;;;;5074248;28;20660;-77
2022/07/01 00:44:17;;;;;;;0.90;0.90;;;18.30;1.00;;;;;;5073929;28;20527;-77
2022/07/01 00:46:43;;;;;;;1.17;1.10;;;18.30;1.00;;;;;;5074438;28;20207;-77
2022/07/01 00:49:09;;;;;;;1.27;1.27;;;18.20;1.00;;;;;;5073756;28;20814;-77
2022/07/01 00:51:35;;;;;;;1.77;1.10;;;18.10;1.00;;;;;;5073068;28;20788;-80
2022/07/01 00:54:01;;;;;;;1.33;1.27;;;18.10;1.00;;;;;;5073202;28;20420;-80
2022/07/01 00:56:27;;;;;;;1.50;1.40;;;18.00;1.00;;;;;;5074016;28;20700;-80
2022/07/01 00:58:54;;;;;;;1.43;1.33;;;17.90;1.00;;;;;;5066044;28;20181;-80
2022/07/01 01:01:21;;;;;;;1.50;1.40;;;17.90;1.00;;;;;;5068977;28;20758;-80
2022/07/01 01:03:47;;;;;;;3.73;1.60;;;17.90;1.00;;;;;;5073913;28;20441;-80
2022/07/01 01:06:13;;;;;;;2.97;1.30;;;17.80;1.00;;;;;;5074104;28;20416;-80
2022/07/01 01:08:39;;;;;;;1.87;1.77;;;17.70;1.00;;;;;;5073725;28;20210;-80
2022/07/01 01:11:06;;;;;;;1.50;1.40;;;17.70;1.00;;;;;;5068644;28;20193;-81
2022/07/01 01:13:31;;;;;;;1.60;1.50;;;17.70;1.00;;;;;;5065849;28;20519;-81
2022/07/01 01:15:57;;;;;;;1.97;1.83;;;17.60;1.00;;;;;;5068542;28;20498;-80
2022/07/01 01:18:22;;;;;;;1.70;1.60;;;17.70;1.00;;;;;;5073859;28;20174;-81
2022/07/01 01:20:48;;;;;;;1.50;1.40;;;17.60;1.00;;;;;;5073955;28;20208;-77
2022/07/01 01:23:14;;;;;;;2.57;1.57;;;17.60;1.00;;;;;;5073676;28;20192;-77
2022/07/01 01:25:39;;;;;;;1.80;1.70;;;17.70;1.00;;;;;;5073213;28;20651;-77
2022/07/01 01:28:05;;;;;;;1.60;1.50;;;17.60;1.00;;;;;;5073496;28;20267;-77
2022/07/01 01:30:31;;;;;;;1.70;1.60;;;17.60;1.00;;;;;;5073205;28;20204;-77
2022/07/01 01:32:57;;;;;;;1.67;1.57;;;17.50;1.00;;;;;;5073196;28;20196;-77
2022/07/01 01:35:23;;;;;;;1.60;1.50;;;17.50;1.00;;;;;;5073221;28;20176;-77
2022/07/01 01:37:49;;;;;;;2.67;1.53;;;17.50;1.00;;;;;;5073410;28;20571;-78
2022/07/01 01:40:15;;;;;;;1.50;1.40;;;17.40;1.00;;;;;;5073066;28;20425;-77
2022/07/01 01:42:42;;;;;;;2.17;1.90;;;17.40;1.00;;;;;;5072800;28;20433;-77
2022/07/01 01:45:08;;;;;;;2.40;1.30;;;17.40;1.00;;;;;;5073155;28;20747;-77
2022/07/01 01:47:34;;;;;;;5.43;1.77;;;17.40;1.00;;;;;;5069544;28;20418;-77
2022/07/01 01:50:00;;;;;;;3.83;1.90;;;17.40;1.00;;;;;;5072998;28;20465;-77
2022/07/01 01:52:26;;;;;;;2.00;1.87;;;17.30;1.00;;;;;;5073358;28;20263;-81
2022/07/01 01:54:51;;;;;;;2.30;2.10;;;17.20;1.00;;;;;;5078603;28;20259;-81
2022/07/01 01:57:17;;;;;;;1.67;1.57;;;17.20;1.00;;;;;;5073002;28;20212;-81
2022/07/01 01:59:42;;;;;;;1.97;1.87;;;17.30;1.00;;;;;;5073131;28;20535;-81
2022/07/01 02:02:08;;;;;;;2.30;2.10;;;17.30;1.00;;;;;;5072460;28;20612;-81
2022/07/01 02:04:34;;;;;;;5.03;1.97;;;17.30;1.00;;;;;;5073645;28;20187;-81
2022/07/01 02:07:00;;;;;;;1.90;1.80;;;17.30;1.00;;;;;;5073027;28;20246;-81
2022/07/01 02:09:25;;;;;;;2.00;1.90;;;17.30;1.00;;;;;;5071947;28;20295;-81
2022/07/01 02:11:52;;;;;;;7.70;1.80;;;17.30;1.00;;;;;;5066657;28;20181;-81
2022/07/01 02:14:18;;;;;;;3.27;1.40;;;17.30;1.00;;;;;;5072067;28;20653;-81
2022/07/01 02:16:43;;;;;;;2.57;1.00;;;17.20;1.00;;;;;;5072726;28;20455;-81
2022/07/01 02:19:13;;;;;;;1.10;0.80;;;17.20;1.00;;;;;;5072798;28;20652;-81
2022/07/01 02:21:39;;;;;;;1.20;1.10;;;17.10;1.00;;;;;;5088088;28;20272;-81
2022/07/01 02:24:05;;;;;;;1.10;0.83;;;17.10;1.00;;;;;;5071523;28;20937;-82
2022/07/01 02:26:30;;;;;;;1.27;0.87;;;17.10;1.00;;;;;;5071312;28;20187;-81
2022/07/01 02:28:56;;;;;;;3.53;1.37;;;17.10;1.00;;;;;;5072825;28;20413;-81
2022/07/01 02:31:21;;;;;;;5.00;1.00;;;17.20;1.00;;;;;;5070797;28;20777;-81
2022/07/01 02:33:47;;;;;;;1.53;1.00;;;17.20;1.00;;;;;;5072688;28;20257;-81
2022/07/01 02:36:13;;;;;;;3.37;0.90;;;17.30;1.00;;;;;;5072808;28;20570;-78
2022/07/01 02:38:39;;;;;;;1.77;0.80;;;17.10;1.00;;;;;;5074098;28;20844;-77
2022/07/01 02:41:04;;;;;;;2.63;0.80;;;17.10;1.00;;;;;;5074384;28;20188;-77
2022/07/01 02:43:30;;;;;;;1.30;0.90;;;17.00;1.00;;;;;;5072656;28;20180;-77
2022/07/01 02:45:57;;;;;;;2.40;1.00;;;17.00;1.00;;;;;;5072268;28;20663;-77
2022/07/01 02:48:23;;;;;;;1.47;1.10;;;16.90;1.00;;;;;;5072504;28;20180;-77
2022/07/01 02:50:48;;;;;;;1.40;1.30;;;16.90;1.00;;;;;;5072360;28;20515;-77
2022/07/01 02:53:14;;;;;;;0.70;0.70;;;16.90;1.00;;;;;;5086490;28;20654;-77
2022/07/01 02:55:39;;;;;;;1.33;0.93;;;16.90;1.00;;;;;;5072202;28;20177;-77
2022/07/01 02:58:05;;;;;;;3.03;0.83;;;16.90;1.00;;;;;;5072149;28;20531;-77
2022/07/01 03:00:31;;;;;;;0.93;0.93;;;16.80;1.00;;;;;;5072483;28;20213;-77
2022/07/01 03:02:57;;;;;;;1.10;1.00;;;16.70;1.00;;;;;;5072162;28;20184;-77
2022/07/01 03:05:22;;;;;;;0.97;0.97;;;16.60;1.00;;;;;;5072431;28;20422;-77
2022/07/01 03:07:48;;;;;;;3.23;0.90;;;16.60;1.00;;;;;;5071257;28;20180;-78
2022/07/01 03:10:14;;;;;;;3.13;1.47;;;16.70;1.00;;;;;;5071696;28;20695;-78
2022/07/01 03:12:40;;;;;;;1.10;0.93;;;16.50;1.00;;;;;;5067529;28;20191;-78
2022/07/01 03:15:14;;;;;;;4.67;1.00;;;16.50;1.00;;;;;;5072166;28;20179;-78
2022/07/01 03:17:42;;;;;;;2.30;1.10;;;16.50;1.00;;;;;;5071922;28;21176;-77
2022/07/01 03:20:10;;;;;;;1.20;1.00;;;16.50;1.00;;;;;;5072000;28;20396;-77
2022/07/01 03:22:36;;;;;;;2.87;1.00;;;16.60;1.00;;;;;;5072459;28;20419;-78
2022/07/01 03:25:03;;;;;;;2.90;1.30;;;16.50;1.00;;;;;;5072100;28;20425;-77
2022/07/01 03:27:29;;;;;;;0.97;0.97;;;16.60;1.00;;;;;;5073833;28;20474;-77
2022/07/01 03:29:55;;;;;;;1.10;1.10;;;16.60;1.00;;;;;;5075598;28;21035;-77
2022/07/01 03:32:21;;;;;;;1.60;1.20;;;16.60;1.00;;;;;;5075614;28;20437;-77
2022/07/01 03:34:50;;;;;;;1.50;1.13;;;16.60;1.00;;;;;;5075890;28;20435;-78
2022/07/01 03:37:17;;;;;;;2.37;1.50;;;16.60;1.00;;;;;;5075853;28;20432;-81
2022/07/01 03:39:44;;;;;;;1.10;1.10;;;16.60;1.00;;;;;;5075774;28;20538;-81
2022/07/01 03:42:10;;;;;;;3.77;1.60;;;16.60;1.00;;;;;;5075532;28;20441;-81
2022/07/01 03:44:36;;;;;;;1.47;1.37;;;16.60;1.00;;;;;;5070851;28;20466;-81
2022/07/01 03:47:05;;;;;;;1.40;1.30;;;16.60;1.00;;;;;;5073088;28;20550;-81
2022/07/01 03:49:31;;;;;;;1.40;1.30;;;16.50;1.00;;;;;;5074082;28;20462;-81
2022/07/01 03:52:03;;;;;;;1.57;1.30;;;16.50;1.00;;;;;;5075316;28;20925;-79
2022/07/01 03:54:32;;;;;;;2.60;1.63;;;16.50;1.00;;;;;;5073924;28;20893;-78
2022/07/01 03:56:59;;;;;;;8.10;1.60;;;16.50;1.00;;;;;;5075017;28;20422;-78
2022/07/01 03:59:26;;;;;;;1.50;1.40;;;16.40;1.00;;;;;;5075066;28;20411;-78
2022/07/01 04:01:52;;;;;;;4.10;1.57;;;16.40;1.00;;;;;;5075162;28;20432;-77
2022/07/01 04:04:18;;;;;;;7.27;1.50;;;16.40;1.00;;;;;;5074997;28;20920;-77
2022/07/01 04:06:46;;;;;;;1.47;1.37;;;16.50;1.00;;;;;;5075194;28;20543;-77
2022/07/01 04:09:14;;;;;;;3.33;1.33;;;16.30;1.00;;;;;;5075014;28;20199;-81
2022/07/01 04:11:40;;;;;;;6.43;1.90;;;16.40;1.00;;;;;;5075173;28;20459;-81
2022/07/01 04:14:06;;;;;;;1.50;1.40;;;16.30;1.00;;;;;;5073468;28;20760;-81
2022/07/01 04:16:32;;;;;;;1.83;1.73;;;16.30;1.00;;;;;;5073880;28;20432;-81
2022/07/01 04:18:58;;;;;;;1.47;1.37;;;16.40;1.00;;;;;;5074553;28;20422;-81
2022/07/01 04:24:08;;;;;;;3.57;1.53;;;16.50;1.00;;;;;;5074936;28;20194;-78
2022/07/01 04:26:34;;;;;;;2.70;1.40;;;16.60;1.00;;;;;;5074530;28;20933;-78
2022/07/01 04:29:00;;;;;;;1.90;1.80;;;16.70;1.00;;;;;;5073470;28;20423;-78
2022/07/01 04:31:26;;;;;;;2.43;1.60;;;16.70;1.00;;;;;;5074520;28;20466;-77
2022/07/01 04:33:51;;;;;;;2.00;1.50;;;16.70;1.00;;;;;;5073946;28;20215;-77
2022/07/01 04:36:18;;;;;;;2.17;1.47;;;16.80;1.00;;;;;;5074347;28;20977;-77
2022/07/01 04:38:43;;;;;;;3.13;1.93;;;16.80;1.00;;;;;;5075060;28;20720;-76
2022/07/01 04:43:53;;;;;;;1.60;1.50;;;16.80;1.00;;;;;;5074473;28;20411;-76
2022/07/01 04:46:19;;;;;;;1.50;1.40;;;16.80;1.00;;;;;;5074156;28;20491;-76
2022/07/01 04:48:44;;;;;;;3.43;1.77;;;16.80;1.00;;;;;;5074099;28;20635;-76
2022/07/01 04:51:10;;;;;;;2.20;1.50;;;16.80;1.00;;;;;;5074391;28;20249;-76
2022/07/01 04:53:35;;;;;;;1.90;1.80;;;16.80;1.00;;;;;;5072928;28;20599;-76
2022/07/01 04:56:01;;;;;;;1.77;1.67;;;16.80;1.00;;;;;;5074130;28;20225;-76
2022/07/01 04:58:27;;;;;;;1.93;1.57;;;16.90;1.00;;;;;;5074234;28;20183;-76
2022/07/01 05:00:55;;;;;;;3.10;1.50;;;16.90;1.00;;;;;;5073967;28;20655;-76
2022/07/01 05:03:21;;;;;;;1.77;1.67;;;17.00;1.00;;;;;;5073235;28;20256;-76
2022/07/01 05:05:46;;;;;;;3.47;1.50;;;17.00;1.00;;;;;;5073474;28;20528;-77
2022/07/01 05:08:12;;;;;;;2.50;1.60;;;17.00;1.00;;;;;;5073946;28;20591;-76
2022/07/01 05:10:38;;;;;;;1.50;1.40;;;17.00;1.00;;;;;;5070009;28;20212;-76
2022/07/01 05:13:04;;;;;;;1.57;1.47;;;17.10;1.00;;;;;;5072854;28;20565;-76
2022/07/01 05:15:29;;;;;;;3.50;1.63;;;17.10;1.00;;;;;;5073482;28;20184;-76
2022/07/01 05:23:23;;;;;;;1.23;1.03;;;17.00;1.00;;;;;;5073242;28;20448;-76
2022/07/01 05:25:49;;;;;;;1.57;1.23;;;16.90;1.00;;;;;;5065870;28;20925;-75
2022/07/01 05:28:14;;;;;;;2.87;1.10;;;16.90;1.00;;;;;;5070760;28;20173;-75
2022/07/01 05:30:40;;;;;;;1.27;0.90;;;17.00;1.00;;;;;;5070642;28;20663;-76
2022/07/01 05:33:06;;;;;;;1.10;1.10;;;17.00;1.00;;;;;;5069125;28;20267;-76
2022/07/01 05:35:32;;;;;;;1.93;1.20;;;17.00;1.00;;;;;;5072944;28;20525;-76
2022/07/01 05:37:58;;;;;;;1.27;1.07;;;17.00;1.00;;;;;;5073341;28;20536;-76
2022/07/01 05:40:25;;;;;;;3.17;1.10;;;17.10;1.00;;;;;;5072931;28;20188;-75
2022/07/01 05:42:51;;;;;;;1.00;0.90;;;17.20;1.00;;;;;;5073082;28;20956;-75
2022/07/01 05:45:17;;;;;;;4.83;0.90;;;17.30;1.00;;;;;;5072596;28;20454;-75
2022/07/01 05:47:43;;;;;;;1.17;0.90;;;17.40;1.00;;;;;;5070193;28;20448;-76
2022/07/01 05:50:09;;;;;;;2.50;1.00;;;17.60;1.00;;;;;;5072242;28;20257;-76
2022/07/01 05:52:34;;;;;;;0.87;0.80;;;17.80;1.00;;;;;;5072672;28;20191;-76
2022/07/01 05:55:00;;;;;;;0.97;0.90;;;18.10;1.00;;;;;;5073459;28;20419;-77
2022/07/01 05:57:26;;;;;;;0.93;0.93;;;18.40;1.00;;;;;;5072870;28;20633;-77
2022/07/01 05:59:52;;;;;;;4.20;0.90;;;18.50;1.00;;;;;;5072643;28;20473;-77
2022/07/01 06:02:17;;;;;;;2.50;0.60;;;18.70;1.00;;;;;;5072569;28;20181;-77
2022/07/01 06:04:44;;;;;;;0.63;0.63;;;18.80;1.00;;;;;;5072318;28;20239;-77
2022/07/01 06:07:12;;;;;;;2.10;1.13;;;18.90;1.00;;;;;;5072902;28;20195;-77
2022/07/01 06:09:38;;;;;;;0.70;0.70;;;18.80;1.00;;;;;;5086014;28;20925;-76
2022/07/01 06:12:05;;;;;;;3.10;0.73;;;19.00;1.00;;;;;;5072282;28;20432;-76
2022/07/01 06:14:32;;;;;;;0.60;0.60;;;19.10;1.00;;;;;;5068147;28;20670;-75
2022/07/01 06:16:58;;;;;;;1.07;0.80;;;19.10;1.00;;;;;;5072350;28;20550;-75
2022/07/01 06:19:27;;;;;;;6.73;0.80;;;19.00;1.00;;;;;;5072697;28;20773;-76
2022/07/01 06:21:53;;;;;;;1.13;1.00;;;18.90;1.00;;;;;;5071440;28;20427;-76
2022/07/01 06:24:24;;;;;;;1.37;0.70;;;18.70;1.00;;;;;;5060745;28;20437;-76
2022/07/01 06:26:51;;;;;;;0.70;0.70;;;18.80;1.00;;;;;;5053458;28;20180;-76
2022/07/01 06:29:22;;;;;;;0.80;0.70;;;18.90;1.00;;;;;;5096709;28;20432;-76
2022/07/01 06:31:48;;;;;;;2.50;0.80;;;18.90;1.00;;;;;;5082692;28;20466;-76
2022/07/01 06:34:20;;;;;;;2.57;0.70;;;19.00;1.00;;;;;;5076364;28;20426;-76
2022/07/01 06:36:56;;;;;;;2.70;0.67;;;19.20;1.00;;;;;;5066350;28;20430;-76
2022/07/01 06:39:22;;;;;;;1.37;0.60;;;19.10;1.00;;;;;;5071159;28;20969;-76
2022/07/01 06:41:47;;;;;;;0.70;0.60;;;19.20;1.00;;;;;;5068720;28;20436;-80
2022/07/01 06:44:14;;;;;;;3.27;0.80;;;19.30;1.00;;;;;;5066842;28;20828;-77
2022/07/01 06:47:01;;;;;;;3.80;0.83;;;19.50;1.00;;;;;;5066764;28;20649;-77
2022/07/01 06:49:44;;;;;;;1.00;0.70;;;19.60;1.00;;;;;;5070666;28;20421;-77
2022/07/01 06:52:09;;;;;;;3.20;0.90;;;19.70;1.00;;;;;;5086299;28;20411;-77
2022/07/01 06:54:44;;;;;;;2.40;0.60;;;19.60;1.00;;;;;;5071803;28;20882;-77
2022/07/01 06:57:10;;;;;;;1.67;0.73;;;19.60;1.00;;;;;;5073198;28;20178;-87
2022/07/01 07:00:07;;;;;;;1.77;0.80;;;19.20;1.00;;;;;;5076618;28;20512;-91
2022/07/01 07:03:02;;;;;;;2.70;1.27;;;19.10;1.00;;;;;;5056634;28;20266;-86
2022/07/01 07:08:49;;;;;;;2.00;0.80;;;19.00;1.00;;;;;;5064137;28;20403;-80
2022/07/01 07:11:19;;;;;;;1.10;0.80;;;18.90;1.00;;;;;;5063737;28;20460;-84
2022/07/01 07:13:45;;;;;;;5.60;0.80;;;18.90;1.00;;;;;;5071637;28;20182;-84
2022/07/01 07:16:36;;;;;;;0.80;0.80;;;18.80;1.00;;;;;;5075078;28;20424;-84
2022/07/01 07:19:02;;;;;;;5.90;1.17;;;18.70;1.00;;;;;;5067226;28;20426;-84
2022/07/01 07:21:29;;;;;;;1.43;0.93;;;18.70;1.00;;;;;;5066932;28;20398;-84
2022/07/01 07:24:25;;;;;;;2.60;0.80;;;18.50;1.00;;;;;;5075632;28;20541;-85
2022/07/01 07:27:08;;;;;;;1.47;0.90;;;18.60;1.00;;;;;;5063355;28;20927;-84
2022/07/01 07:29:33;;;;;;;1.90;0.90;;;18.50;1.00;;;;;;5062822;28;20408;-84
2022/07/01 07:32:25;;;;;;;3.63;0.87;;;18.50;1.00;;;;;;5075434;28;20442;-85
2022/07/01 07:34:52;;;;;;;2.00;0.93;;;18.40;1.00;;;;;;5075742;28;20239;-84
2022/07/01 07:37:20;;;;;;;1.20;0.90;;;18.40;1.00;;;;;;5074963;28;20942;-84
2022/07/01 07:43:43;;;;;;;2.80;0.90;;;18.40;1.00;;;;;;5077167;28;20402;-84
2022/07/01 07:46:43;;;;;;;3.17;1.00;;;18.40;1.00;;;;;;5075375;28;20436;-84
2022/07/01 07:49:37;;;;;;;3.13;1.20;;;18.30;1.00;;;;;;5075721;28;20454;-84
2022/07/01 07:52:14;;;;;;;3.10;1.10;;;18.20;1.00;;;;;;5063875;28;20428;-85
2022/07/01 07:54:40;;;;;;;1.30;1.20;;;18.20;1.00;;;;;;5091622;28;20425;-84
2022/07/01 07:57:06;;;;;;;3.03;1.07;;;18.10;1.00;;;;;;5074318;28;20411;-84
2022/07/01 07:59:44;;;;;;;1.17;0.90;;;18.10;1.00;;;;;;5075067;28;20403;-84
2022/07/01 08:02:43;;;;;;;4.70;1.40;;;18.10;1.00;;;;;;5092148;28;20908;-84
2022/07/01 08:05:10;;;;;;;6.17;1.50;;;18.00;1.00;;;;;;5078140;28;20435;-84
2022/07/01 08:08:13;;;;;;;1.47;1.23;;;17.90;1.00;;;;;;5076033;28;20407;-84
2022/07/01 08:11:18;;;;;;;7.00;1.20;;;17.90;1.00;;;;;;5092008;28;20489;-84
2022/07/01 08:14:02;;;;;;;3.00;1.60;;;17.80;1.00;;;;;;5056051;28;20400;-84
2022/07/01 08:16:55;;;;;;;1.77;1.23;;;17.90;1.00;;;;;;5076238;28;20539;-84
2022/07/01 08:26:08;;;;;;;3.43;1.60;;;18.00;1.00;;;;;;5073129;28;20437;-83
2022/07/01 08:39:13;;;;;;;4.40;1.50;;;18.10;1.00;;;;;;5068431;28;20402;-84
2022/07/01 08:45:14;;;;;;;1.27;1.10;;;18.50;1.00;;;;;;5072328;28;20762;-80
2022/07/01 08:48:13;;;;;;;3.07;1.33;;;18.60;1.00;;;;;;5068568;28;20425;-80
2022/07/01 08:51:07;;;;;;;3.33;1.50;;;18.70;1.00;;;;;;5073275;28;20466;-81
2022/07/01 08:56:54;;;;;;;3.90;1.30;;;19.00;1.00;;;;;;5062168;28;20457;-86
2022/07/01 09:06:18;;;;;;;1.83;1.57;;;19.50;1.00;;;;;;5066900;28;20464;-87
2022/07/01 09:09:21;;;;;;;1.50;1.37;;;19.70;1.00;;;;;;5087547;28;20433;-87
2022/07/01 09:15:43;;;;;;;2.87;1.57;;;20.00;1.00;;;;;;5074889;28;20420;-87
2022/07/01 09:24:53;;;;;;;4.57;1.73;;;19.70;1.00;;;;;;5069261;28;20363;-87
2022/07/01 09:27:37;;;;;;;2.60;1.57;;;19.80;1.00;;;;;;5054179;28;20462;-87
2022/07/01 09:33:28;;;;;;;3.10;1.70;;;19.80;1.00;;;;;;5063396;28;20428;-80
2022/07/01 09:36:14;;;;;;;4.03;1.70;;;19.90;1.00;;;;;;5060894;28;20424;-80
2022/07/01 09:39:07;;;;;;;7.90;2.07;;;19.90;1.00;;;;;;5074097;28;20458;-80
2022/07/01 09:41:44;;;;;;;6.70;1.67;;;19.80;1.00;;;;;;5053788;28;20395;-79
2022/07/01 09:50:54;;;;;;;5.20;1.80;;;19.50;1.00;;;;;;5073624;28;20510;-83
2022/07/01 09:53:56;;;;;;;3.30;1.93;;;19.50;1.00;;;;;;5074295;28;20549;-83
2022/07/01 09:56:23;;;;;;;1.73;1.43;;;19.50;1.00;;;;;;5072565;28;20427;-83
2022/07/01 09:58:49;;;;;;;2.20;1.70;;;19.80;1.00;;;;;;5086483;28;20944;-78
2022/07/01 10:01:22;;;;;;;5.67;1.40;;;20.10;1.00;;;;;;5073727;28;20425;-77
2022/07/01 10:04:08;;;;;;;2.53;1.40;;;20.40;1.00;;;;;;5054099;28;20179;-77
2022/07/01 10:06:48;;;;;;;1.57;1.17;;;20.50;1.00;;;;;;5069221;28;20467;-77
2022/07/01 10:09:16;;;;;;;5.73;1.20;;;20.60;1.00;;;;;;5062864;28;20389;-77
2022/07/01 10:12:02;;;;;;;7.03;1.40;;;20.80;1.00;;;;;;5074689;28;20469;-77
2022/07/01 10:14:30;;;;;;;2.67;1.20;;;21.00;1.00;;;;;;5079883;28;20510;-77
2022/07/01 10:16:56;;;;;;;1.60;1.20;;;21.50;1.00;;;;;;5067205;28;20433;-77
2022/07/01 10:19:38;;;;;;;2.10;1.20;;;21.90;1.00;;;;;;5077823;28;20407;-77
2022/07/01 10:22:38;;;;;;;1.93;1.20;;;22.00;1.00;;;;;;5053928;28;20151;-77
2022/07/01 10:25:58;;;;;;;7.20;1.60;;;21.90;1.00;;;;;;5060780;28;20469;-77
2022/07/01 10:29:01;;;;;;;6.43;1.23;;;22.60;1.00;;;;;;5031969;28;20827;-77
2022/07/01 10:31:46;;;;;;;2.80;1.17;;;22.90;1.00;;;;;;5018210;28;20541;-77
2022/07/01 10:34:12;;;;;;;8.33;1.30;;;22.90;1.00;;;;;;5030900;28;20896;-76
2022/07/01 10:36:38;;;;;;;1.53;1.20;;;23.00;1.00;;;;;;5035610;28;20434;-76
2022/07/01 10:39:14;;;;;;;4.40;1.50;;;23.00;1.00;;;;;;5037624;28;21000;-76
2022/07/01 10:41:53;;;;;;;2.10;1.30;;;22.60;1.00;;;;;;5038029;28;20230;-76
2022/07/01 10:47:40;;;;;;;1.73;1.27;;;23.40;1.00;;;;;;5037612;28;20411;-81
2022/07/01 10:50:55;;;;;;;2.17;1.17;;;23.80;1.00;;;;;;5037682;28;20468;-81
2022/07/01 10:53:47;;;;;;;5.43;1.10;;;23.80;1.00;;;;;;5037904;28;20416;-81
2022/07/01 10:56:17;;;;;;;1.10;1.10;;;24.10;1.00;;;;;;5036151;28;20437;-82
2022/07/01 10:58:44;;;;;;;3.60;1.00;;;24.00;1.00;;;;;;5038027;28;20427;-81
2022/07/01 11:05:11;;;;;;;1.23;1.13;;;23.70;1.00;;;;;;5067098;28;20395;-81
2022/07/01 11:08:04;;;;;;;2.40;1.00;;;23.60;1.00;;;;;;5059894;28;20421;-81
2022/07/01 11:10:29;;;;;;;1.40;1.10;;;23.60;1.00;;;;;;5072802;28;20456;-80
2022/07/01 11:13:14;;;;;;;1.73;1.30;;;23.50;1.00;;;;;;5069409;28;20782;-80
2022/07/01 11:15:47;;;;;;;6.87;1.10;;;23.50;1.00;;;;;;5066779;28;20202;-75
2022/07/01 11:18:14;;;;;;;3.80;1.07;;;23.70;1.00;;;;;;5070021;28;20407;-80
2022/07/01 11:20:40;;;;;;;6.23;1.33;;;24.00;1.00;;;;;;5073098;28;20408;-76
2022/07/01 11:23:06;;;;;;;1.10;1.00;;;24.20;1.00;;;;;;5073016;28;20787;-76
2022/07/01 11:25:38;;;;;;;8.07;1.27;;;24.20;1.00;;;;;;5067832;28;20185;-76
2022/07/01 11:28:10;;;;;;;3.43;1.13;;;24.20;1.00;;;;;;5065741;28;20564;-75
2022/07/01 11:30:38;;;;;;;7.97;1.30;;;24.20;1.00;;;;;;5068681;28;20463;-75
2022/07/01 11:33:04;;;;;;;3.83;0.90;;;24.10;1.00;;;;;;5095124;28;20404;-76
2022/07/01 11:41:18;;;;;;;3.20;1.00;;;23.60;1.00;;;;;;5066397;28;20443;-75
2022/07/01 11:43:45;;;;;;;6.63;1.33;;;23.30;1.00;;;;;;5077212;28;20420;-75
2022/07/01 11:46:12;;;;;;;1.27;1.17;;;23.00;1.00;;;;;;5073178;28;20431;-75
2022/07/01 11:48:49;;;;;;;1.57;1.17;;;22.90;1.00;;;;;;5065884;28;20413;-75
2022/07/01 11:51:29;;;;;;;2.70;1.33;;;23.00;1.00;;;;;;5067960;28;20451;-76
2022/07/01 11:53:56;;;;;;;1.70;1.00;;;23.20;1.00;;;;;;5082752;28;20432;-75
2022/07/01 11:56:35;;;;;;;1.60;1.10;;;23.30;1.00;;;;;;5069058;28;20445;-76
2022/07/01 11:59:01;;;;;;;8.40;1.50;;;23.30;1.00;;;;;;5085751;28;20810;-75
2022/07/01 12:02:13;;;;;;;2.50;1.10;;;23.50;1.00;;;;;;5067624;28;20495;-80
2022/07/01 12:08:40;;;;;;;3.37;1.40;;;24.00;1.00;;;;;;5065290;28;20374;-80
2022/07/01 12:11:21;;;;;;;1.60;1.30;;;24.20;1.00;;;;;;5063988;28;20454;-81
2022/07/01 12:13:48;;;;;;;2.70;1.50;;;24.50;1.00;;;;;;5062167;28;20415;-80
2022/07/01 12:17:08;;;;;;;3.43;1.77;;;25.00;1.00;;;;;;5066126;28;20749;-80
2022/07/01 12:20:01;;;;;;;21.70;2.67;;;25.00;1.00;;;;;;5066951;28;20431;-80
2022/07/01 12:29:36;;;;;;;6.57;1.30;;;25.10;1.00;;;;;;5068916;28;20390;-80
2022/07/01 12:32:10;;;;;;;5.70;1.07;;;25.40;1.00;;;;;;5065747;28;20765;-80
2022/07/01 12:35:33;;;;;;;8.83;1.00;;;25.60;1.00;;;;;;5070888;28;20463;-80
2022/07/01 12:44:46;;;;;;;2.53;1.20;;;24.60;1.00;;;;;;5057111;28;20428;-80
2022/07/01 12:47:34;;;;;;;1.83;0.87;;;24.70;1.00;;;;;;5069154;28;20444;-80
2022/07/01 12:56:56;;;;;;;1.33;0.80;;;25.30;1.00;;;;;;5068277;28;20389;-80
2022/07/01 13:02:43;;;;;;;3.17;1.70;;;25.90;1.00;;;;;;5065933;28;20810;-80
2022/07/01 13:05:55;;;;;;;1.80;1.07;;;26.10;1.00;;;;;;5068108;28;20420;-80
2022/07/01 13:11:43;;;;;;;2.90;1.10;;;26.70;1.00;;;;;;5062245;28;20506;-80
2022/07/01 13:21:31;;;;;;;5.07;1.20;;;26.00;1.00;;;;;;5066149;28;20833;-80
2022/07/01 13:27:19;;;;;;;6.67;1.33;;;24.80;1.00;;;;;;5063923;28;20411;-80
2022/07/01 13:33:08;;;;;;;1.83;1.27;;;24.00;1.00;;;;;;5088148;28;20183;-75
2022/07/01 13:35:38;;;;;;;4.70;1.17;;;23.90;1.00;;;;;;5085886;28;20781;-74
2022/07/01 13:38:14;;;;;;;4.40;1.70;;;23.70;1.00;;;;;;5071447;28;20423;-75
2022/07/01 13:40:39;;;;;;;2.40;1.47;;;23.80;1.00;;;;;;5080301;28;20903;-74
2022/07/01 13:43:05;;;;;;;5.90;1.67;;;23.90;1.00;;;;;;5074601;28;20414;-75
2022/07/01 13:46:20;;;;;;;1.63;1.40;;;24.10;1.00;;;;;;5061067;28;20242;-75
2022/07/01 13:48:46;;;;;;;6.60;1.30;;;24.20;1.00;;;;;;5067363;28;20572;-75
2022/07/01 13:51:12;;;;;;;1.93;1.30;;;24.10;1.00;;;;;;5060601;28;20450;-74
2022/07/01 13:53:37;;;;;;;2.70;1.37;;;23.90;1.00;;;;;;5087333;28;20175;-75
2022/07/01 13:56:03;;;;;;;2.03;1.30;;;24.00;1.00;;;;;;5068161;28;20621;-75
2022/07/01 13:58:29;;;;;;;2.10;1.10;;;23.90;1.00;;;;;;5066810;28;20879;-75
2022/07/01 14:00:56;;;;;;;4.80;1.37;;;23.80;1.00;;;;;;5080307;28;20418;-74
2022/07/01 14:04:01;;;;;;;1.53;1.00;;;23.70;1.00;;;;;;5081193;28;20415;-80
2022/07/01 14:10:25;;;;;;;3.83;0.97;;;23.50;1.00;;;;;;5065738;28;20436;-80
2022/07/01 14:16:13;;;;;;;3.23;1.00;;;23.80;1.00;;;;;;5066003;28;21082;-80
2022/07/01 14:18:57;;;;;;;1.03;0.93;;;24.00;1.00;;;;;;5056386;28;20420;-75
2022/07/01 14:21:28;;;;;;;1.37;0.97;;;24.50;1.00;;;;;;5068766;28;20252;-75
2022/07/01 14:23:54;;;;;;;7.13;0.90;;;25.00;1.00;;;;;;5073586;28;20404;-75
2022/07/01 14:26:19;;;;;;;3.03;1.20;;;25.10;1.00;;;;;;5060122;28;20416;-75
2022/07/01 14:28:50;;;;;;;1.57;0.97;;;25.10;1.00;;;;;;5073655;28;20182;-75
2022/07/01 14:31:16;;;;;;;4.53;1.20;;;25.10;1.00;;;;;;5060056;28;20202;-74
2022/07/01 14:33:42;;;;;;;2.10;0.80;;;25.30;1.00;;;;;;5064017;28;20462;-80
2022/07/01 14:36:07;;;;;;;10.53;1.60;;;25.00;1.00;;;;;;5082594;28;20170;-80
2022/07/01 14:38:50;;;;;;;2.43;1.00;;;24.80;1.00;;;;;;5064683;28;20770;-80
2022/07/01 14:44:44;;;;;;;1.63;1.03;;;24.80;1.00;;;;;;5066833;28;20397;-80
2022/07/01 14:50:33;;;;;;;1.73;1.00;;;24.10;1.00;;;;;;5059940;28;20458;-86
2022/07/01 14:53:10;;;;;;;1.00;0.90;;;24.10;1.00;;;;;;5072454;28;21016;-86
2022/07/01 14:55:36;;;;;;;3.43;0.80;;;24.10;1.00;;;;;;5065790;28;20427;-84
2022/07/01 14:58:02;;;;;;;1.23;0.80;;;24.30;1.00;;;;;;5062740;28;20416;-84
2022/07/01 15:01:02;;;;;;;6.33;0.90;;;24.10;1.00;;;;;;5069798;28;20428;-78
2022/07/01 15:06:56;;;;;;;0.90;0.90;;;24.20;1.00;;;;;;5055056;28;20395;-85
2022/07/01 15:12:44;;;;;;;2.50;0.80;;;25.20;1.00;;;;;;5053857;28;20389;-86
2022/07/01 15:15:49;;;;;;;5.13;0.90;;;26.70;1.00;;;;;;5065489;28;20772;-85
2022/07/01 15:19:01;;;;;;;2.53;0.80;;;28.80;1.00;;;;;;5066845;28;20183;-86
2022/07/01 15:22:19;;;;;;;2.30;0.70;;;30.80;1.00;;;;;;5057737;28;20421;-85
2022/07/01 15:28:07;;;;;;;1.10;0.70;;;33.40;1.00;;;;;;5060499;28;20486;-86
2022/07/01 15:31:08;;;;;;;0.70;0.70;;;34.90;1.00;;;;;;5075848;28;20492;-86
2022/07/01 15:33:35;;;;;;;1.60;0.80;;;35.60;1.00;;;;;;5068884;28;20578;-84
2022/07/01 15:36:01;;;;;;;0.80;0.60;;;35.70;1.00;;;;;;5085463;28;20534;-84
2022/07/01 15:38:44;;;;;;;0.70;0.60;;;35.80;1.00;;;;;;5064451;28;20488;-83
2022/07/01 15:41:59;;;;;;;1.50;0.70;;;36.40;1.00;;;;;;5063245;28;20183;-83
2022/07/01 15:48:05;;;;;;;2.80;0.60;;;37.90;1.00;;;;;;5090495;28;20826;-79
2022/07/01 15:50:38;;;;;;;7.77;0.80;;;38.70;1.00;;;;;;5062894;28;20450;-80
2022/07/01 15:53:33;;;;;;;3.70;0.80;;;40.30;1.00;;;;;;5068172;28;20432;-79
2022/07/01 15:56:08;;;;;;;8.60;0.67;;;39.90;1.00;;;;;;5069580;28;20410;-79
2022/07/01 16:01:55;;;;;;;0.70;0.60;;;39.50;1.00;;;;;;5069430;28;20535;-80